sensor_id;sensor_type;location;lat;lon;timestamp;P1;durP1;ratioP1;P2;durP2;ratioP2
3309;SDS011;1667;53.238;10.394;2023-02-28T00:02:36;12.07;;;6.97;;
3309;SDS011;1667;53.238;10.394;2023-02-28T00:07:36;9.70;;;6.67;;
3309;SDS011;1667;53.238;10.394;2023-02-28T00:12:35;12.93;;;9.07;;
3309;SDS011;1667;53.238;10.394;2023-02-28T00:17:34;11.10;;;7.57;;
3309;SDS011;1667;53.238;10.394;2023-02-28T00:22:34;10.97;;;8.00;;
3309;SDS011;1667;53.238;10.394;2023-02-28T00:27:33;9.03;;;6.60;;
3309;SDS011;1667;53.238;10.394;2023-02-28T00:32:33;10.57;;;6.50;;
3309;SDS011;1667;53.238;10.394;2023-02-28T00:37:32;10.20;;;6.77;;
3309;SDS011;1667;53.238;10.394;2023-02-28T00:42:32;10.40;;;6.20;;
3309;SDS011;1667;53.238;10.394;2023-02-28T00:47:30;12.53;;;6.60;;
3309;SDS011;1667;53.238;10.394;2023-02-28T00:52:29;10.63;;;6.50;;
3309;SDS011;1667;53.238;10.394;2023-02-28T00:57:28;9.67;;;5.47;;
3309;SDS011;1667;53.238;10.394;2023-02-28T01:02:28;5.93;;;4.80;;
3309;SDS011;1667;53.238;10.394;2023-02-28T01:07:27;10.50;;;6.33;;
3309;SDS011;1667;53.238;10.394;2023-02-28T01:12:25;8.67;;;5.20;;
3309;SDS011;1667;53.238;10.394;2023-02-28T01:17:26;5.50;;;4.50;;
3309;SDS011;1667;53.238;10.394;2023-02-28T01:22:25;8.40;;;4.80;;
3309;SDS011;1667;53.238;10.394;2023-02-28T01:27:24;7.60;;;4.20;;
3309;SDS011;1667;53.238;10.394;2023-02-28T01:32:23;6.67;;;4.50;;
3309;SDS011;1667;53.238;10.394;2023-02-28T01:37:22;6.30;;;4.90;;
3309;SDS011;1667;53.238;10.394;2023-02-28T01:42:22;6.60;;;4.60;;
3309;SDS011;1667;53.238;10.394;2023-02-28T01:47:20;7.87;;;5.03;;
3309;SDS011;1667;53.238;10.394;2023-02-28T01:52:20;9.47;;;5.60;;
3309;SDS011;1667;53.238;10.394;2023-02-28T01:57:25;8.63;;;4.80;;
3309;SDS011;1667;53.238;10.394;2023-02-28T02:02:34;6.70;;;4.70;;
3309;SDS011;1667;53.238;10.394;2023-02-28T02:07:35;8.90;;;5.60;;
3309;SDS011;1667;53.238;10.394;2023-02-28T02:12:46;6.27;;;4.30;;
3309;SDS011;1667;53.238;10.394;2023-02-28T02:17:56;4.83;;;3.67;;
3309;SDS011;1667;53.238;10.394;2023-02-28T02:28:49;23.00;;;4.73;;
3309;SDS011;1667;53.238;10.394;2023-02-28T02:34:18;5.20;;;3.67;;
3309;SDS011;1667;53.238;10.394;2023-02-28T02:39:38;3.97;;;3.57;;
3309;SDS011;1667;53.238;10.394;2023-02-28T02:44:43;7.60;;;4.20;;
3309;SDS011;1667;53.238;10.394;2023-02-28T02:49:48;7.60;;;3.53;;
3309;SDS011;1667;53.238;10.394;2023-02-28T02:54:48;7.30;;;3.70;;
3309;SDS011;1667;53.238;10.394;2023-02-28T03:06:42;6.00;;;3.70;;
3309;SDS011;1667;53.238;10.394;2023-02-28T03:11:40;4.47;;;3.73;;
3309;SDS011;1667;53.238;10.394;2023-02-28T03:16:45;4.50;;;3.60;;
3309;SDS011;1667;53.238;10.394;2023-02-28T03:22:11;6.73;;;3.50;;
3309;SDS011;1667;53.238;10.394;2023-02-28T03:27:16;5.80;;;3.60;;
3309;SDS011;1667;53.238;10.394;2023-02-28T03:32:24;8.50;;;4.17;;
3309;SDS011;1667;53.238;10.394;2023-02-28T03:37:27;4.53;;;3.50;;
3309;SDS011;1667;53.238;10.394;2023-02-28T03:42:28;5.10;;;3.63;;
3309;SDS011;1667;53.238;10.394;2023-02-28T03:47:31;6.03;;;3.87;;
3309;SDS011;1667;53.238;10.394;2023-02-28T03:52:35;5.80;;;4.27;;
3309;SDS011;1667;53.238;10.394;2023-02-28T03:57:39;6.57;;;3.67;;
3309;SDS011;1667;53.238;10.394;2023-02-28T04:02:41;6.13;;;4.00;;
3309;SDS011;1667;53.238;10.394;2023-02-28T04:07:41;5.67;;;3.60;;
3309;SDS011;1667;53.238;10.394;2023-02-28T04:12:39;4.43;;;3.70;;
3309;SDS011;1667;53.238;10.394;2023-02-28T04:17:38;6.47;;;4.03;;
3309;SDS011;1667;53.238;10.394;2023-02-28T04:22:36;4.50;;;3.63;;
3309;SDS011;1667;53.238;10.394;2023-02-28T04:27:36;5.50;;;4.10;;
3309;SDS011;1667;53.238;10.394;2023-02-28T04:32:34;4.27;;;3.87;;
3309;SDS011;1667;53.238;10.394;2023-02-28T04:37:33;6.10;;;3.57;;
3309;SDS011;1667;53.238;10.394;2023-02-28T04:42:33;6.90;;;3.70;;
3309;SDS011;1667;53.238;10.394;2023-02-28T04:47:34;4.03;;;3.47;;
3309;SDS011;1667;53.238;10.394;2023-02-28T04:52:32;3.83;;;3.33;;
3309;SDS011;1667;53.238;10.394;2023-02-28T04:57:31;7.07;;;4.33;;
3309;SDS011;1667;53.238;10.394;2023-02-28T05:02:29;8.07;;;5.57;;
3309;SDS011;1667;53.238;10.394;2023-02-28T05:07:29;4.57;;;4.00;;
3309;SDS011;1667;53.238;10.394;2023-02-28T05:12:28;9.60;;;3.60;;
3309;SDS011;1667;53.238;10.394;2023-02-28T05:17:26;9.73;;;3.37;;
3309;SDS011;1667;53.238;10.394;2023-02-28T05:22:25;8.03;;;3.40;;
3309;SDS011;1667;53.238;10.394;2023-02-28T05:27:25;7.00;;;4.43;;
3309;SDS011;1667;53.238;10.394;2023-02-28T05:32:24;3.33;;;2.90;;
3309;SDS011;1667;53.238;10.394;2023-02-28T05:37:23;4.53;;;2.90;;
3309;SDS011;1667;53.238;10.394;2023-02-28T05:42:22;3.90;;;3.50;;
3309;SDS011;1667;53.238;10.394;2023-02-28T05:47:22;5.20;;;3.43;;
3309;SDS011;1667;53.238;10.394;2023-02-28T05:52:20;9.60;;;4.57;;
3309;SDS011;1667;53.238;10.394;2023-02-28T05:57:18;12.37;;;6.67;;
3309;SDS011;1667;53.238;10.394;2023-02-28T06:02:21;7.97;;;5.83;;
3309;SDS011;1667;53.238;10.394;2023-02-28T06:07:20;19.80;;;9.60;;
3309;SDS011;1667;53.238;10.394;2023-02-28T06:12:18;7.93;;;5.97;;
3309;SDS011;1667;53.238;10.394;2023-02-28T06:17:17;9.10;;;4.00;;
3309;SDS011;1667;53.238;10.394;2023-02-28T06:22:17;5.30;;;4.03;;
3309;SDS011;1667;53.238;10.394;2023-02-28T06:27:15;6.93;;;4.87;;
3309;SDS011;1667;53.238;10.394;2023-02-28T06:32:14;6.80;;;4.93;;
3309;SDS011;1667;53.238;10.394;2023-02-28T06:37:13;8.60;;;5.73;;
3309;SDS011;1667;53.238;10.394;2023-02-28T06:42:12;6.50;;;5.40;;
3309;SDS011;1667;53.238;10.394;2023-02-28T06:47:11;7.50;;;4.73;;
3309;SDS011;1667;53.238;10.394;2023-02-28T06:52:10;51.83;;;28.80;;
3309;SDS011;1667;53.238;10.394;2023-02-28T06:57:08;14.20;;;7.93;;
3309;SDS011;1667;53.238;10.394;2023-02-28T07:02:09;8.80;;;5.33;;
3309;SDS011;1667;53.238;10.394;2023-02-28T07:07:07;5.33;;;4.40;;
3309;SDS011;1667;53.238;10.394;2023-02-28T07:12:05;8.87;;;5.70;;
3309;SDS011;1667;53.238;10.394;2023-02-28T07:17:05;8.00;;;4.73;;
3309;SDS011;1667;53.238;10.394;2023-02-28T07:22:06;7.53;;;4.80;;
3309;SDS011;1667;53.238;10.394;2023-02-28T07:27:05;11.17;;;5.37;;
3309;SDS011;1667;53.238;10.394;2023-02-28T07:32:04;7.80;;;5.07;;
3309;SDS011;1667;53.238;10.394;2023-02-28T07:37:02;9.00;;;4.53;;
3309;SDS011;1667;53.238;10.394;2023-02-28T07:42:05;7.50;;;5.23;;
3309;SDS011;1667;53.238;10.394;2023-02-28T07:47:08;7.20;;;5.60;;
3309;SDS011;1667;53.238;10.394;2023-02-28T07:52:07;4.43;;;4.00;;
3309;SDS011;1667;53.238;10.394;2023-02-28T07:57:09;6.77;;;5.07;;
3309;SDS011;1667;53.238;10.394;2023-02-28T08:02:08;7.10;;;6.10;;
3309;SDS011;1667;53.238;10.394;2023-02-28T08:07:10;7.33;;;5.40;;
3309;SDS011;1667;53.238;10.394;2023-02-28T08:12:12;5.27;;;3.77;;
3309;SDS011;1667;53.238;10.394;2023-02-28T08:17:10;8.40;;;5.20;;
3309;SDS011;1667;53.238;10.394;2023-02-28T08:22:09;6.80;;;4.47;;
3309;SDS011;1667;53.238;10.394;2023-02-28T08:27:07;8.97;;;5.70;;
3309;SDS011;1667;53.238;10.394;2023-02-28T08:32:07;4.93;;;3.83;;
3309;SDS011;1667;53.238;10.394;2023-02-28T08:37:24;7.83;;;5.60;;
3309;SDS011;1667;53.238;10.394;2023-02-28T08:42:23;5.33;;;3.63;;
3309;SDS011;1667;53.238;10.394;2023-02-28T08:47:23;4.30;;;3.90;;
3309;SDS011;1667;53.238;10.394;2023-02-28T08:52:21;7.77;;;5.80;;
3309;SDS011;1667;53.238;10.394;2023-02-28T08:57:20;10.40;;;5.30;;
3309;SDS011;1667;53.238;10.394;2023-02-28T09:02:19;9.53;;;7.20;;
3309;SDS011;1667;53.238;10.394;2023-02-28T09:07:19;8.10;;;5.40;;
3309;SDS011;1667;53.238;10.394;2023-02-28T09:12:18;4.63;;;3.30;;
3309;SDS011;1667;53.238;10.394;2023-02-28T09:17:16;5.57;;;4.13;;
3309;SDS011;1667;53.238;10.394;2023-02-28T09:22:15;5.90;;;3.90;;
3309;SDS011;1667;53.238;10.394;2023-02-28T09:27:15;5.83;;;3.80;;
3309;SDS011;1667;53.238;10.394;2023-02-28T09:32:14;4.40;;;2.90;;
3309;SDS011;1667;53.238;10.394;2023-02-28T09:37:14;2.73;;;2.27;;
3309;SDS011;1667;53.238;10.394;2023-02-28T09:42:17;6.23;;;3.20;;
3309;SDS011;1667;53.238;10.394;2023-02-28T09:47:22;2.27;;;2.10;;
3309;SDS011;1667;53.238;10.394;2023-02-28T09:59:20;2.17;;;2.07;;
3309;SDS011;1667;53.238;10.394;2023-02-28T10:04:42;1.43;;;1.43;;
3309;SDS011;1667;53.238;10.394;2023-02-28T10:09:50;5.83;;;1.27;;
3309;SDS011;1667;53.238;10.394;2023-02-28T10:14:53;1.80;;;0.90;;
3309;SDS011;1667;53.238;10.394;2023-02-28T10:19:58;1.30;;;1.20;;
3309;SDS011;1667;53.238;10.394;2023-02-28T10:25:05;1.10;;;1.10;;
3309;SDS011;1667;53.238;10.394;2023-02-28T10:30:16;1.40;;;1.30;;
3309;SDS011;1667;53.238;10.394;2023-02-28T10:35:15;4.80;;;2.40;;
3309;SDS011;1667;53.238;10.394;2023-02-28T10:40:25;1.70;;;1.60;;
3309;SDS011;1667;53.238;10.394;2023-02-28T10:45:28;2.10;;;1.47;;
3309;SDS011;1667;53.238;10.394;2023-02-28T10:50:30;2.50;;;1.50;;
3309;SDS011;1667;53.238;10.394;2023-02-28T10:55:34;2.07;;;1.93;;
3309;SDS011;1667;53.238;10.394;2023-02-28T11:00:35;2.60;;;1.97;;
3309;SDS011;1667;53.238;10.394;2023-02-28T11:05:35;2.43;;;1.60;;
3309;SDS011;1667;53.238;10.394;2023-02-28T11:10:34;2.37;;;1.50;;
3309;SDS011;1667;53.238;10.394;2023-02-28T11:15:32;3.30;;;2.50;;
3309;SDS011;1667;53.238;10.394;2023-02-28T11:20:33;2.90;;;1.60;;
3309;SDS011;1667;53.238;10.394;2023-02-28T11:25:32;1.77;;;1.67;;
3309;SDS011;1667;53.238;10.394;2023-02-28T11:30:36;1.67;;;1.57;;
3309;SDS011;1667;53.238;10.394;2023-02-28T11:35:38;2.83;;;1.10;;
3309;SDS011;1667;53.238;10.394;2023-02-28T11:40:39;3.90;;;1.10;;
3309;SDS011;1667;53.238;10.394;2023-02-28T11:45:49;1.57;;;1.50;;
3309;SDS011;1667;53.238;10.394;2023-02-28T11:51:06;1.87;;;1.00;;
3309;SDS011;1667;53.238;10.394;2023-02-28T11:56:14;4.20;;;1.17;;
3309;SDS011;1667;53.238;10.394;2023-02-28T12:01:28;1.37;;;1.27;;
3309;SDS011;1667;53.238;10.394;2023-02-28T12:06:37;1.30;;;1.20;;
3309;SDS011;1667;53.238;10.394;2023-02-28T12:11:45;1.40;;;1.30;;
3309;SDS011;1667;53.238;10.394;2023-02-28T12:16:55;0.93;;;0.80;;
3309;SDS011;1667;53.238;10.394;2023-02-28T12:22:12;0.97;;;0.93;;
3309;SDS011;1667;53.238;10.394;2023-02-28T12:27:37;2.70;;;1.10;;
3309;SDS011;1667;53.238;10.394;2023-02-28T12:32:40;1.00;;;0.90;;
3309;SDS011;1667;53.238;10.394;2023-02-28T12:37:42;3.33;;;1.33;;
3309;SDS011;1667;53.238;10.394;2023-02-28T12:42:45;1.70;;;1.60;;
3309;SDS011;1667;53.238;10.394;2023-02-28T12:47:50;2.50;;;1.70;;
3309;SDS011;1667;53.238;10.394;2023-02-28T12:52:54;1.33;;;1.00;;
3309;SDS011;1667;53.238;10.394;2023-02-28T12:57:59;1.60;;;1.50;;
3309;SDS011;1667;53.238;10.394;2023-02-28T13:03:19;1.03;;;1.00;;
3309;SDS011;1667;53.238;10.394;2023-02-28T13:08:36;1.67;;;1.57;;
3309;SDS011;1667;53.238;10.394;2023-02-28T13:13:59;2.20;;;1.30;;
3309;SDS011;1667;53.238;10.394;2023-02-28T13:19:10;2.80;;;1.67;;
3309;SDS011;1667;53.238;10.394;2023-02-28T13:24:10;1.83;;;1.73;;
3309;SDS011;1667;53.238;10.394;2023-02-28T13:29:31;4.23;;;1.67;;
3309;SDS011;1667;53.238;10.394;2023-02-28T13:34:32;1.93;;;1.43;;
3309;SDS011;1667;53.238;10.394;2023-02-28T13:39:47;1.57;;;1.37;;
3309;SDS011;1667;53.238;10.394;2023-02-28T13:50:24;3.70;;;1.73;;
3309;SDS011;1667;53.238;10.394;2023-02-28T13:55:27;4.40;;;1.60;;
3309;SDS011;1667;53.238;10.394;2023-02-28T14:00:37;1.83;;;1.50;;
3309;SDS011;1667;53.238;10.394;2023-02-28T14:11:22;1.70;;;1.30;;
3309;SDS011;1667;53.238;10.394;2023-02-28T14:16:25;3.23;;;1.90;;
3309;SDS011;1667;53.238;10.394;2023-02-28T14:21:27;1.97;;;1.77;;
3309;SDS011;1667;53.238;10.394;2023-02-28T14:26:31;1.50;;;1.40;;
3309;SDS011;1667;53.238;10.394;2023-02-28T14:31:43;1.20;;;1.10;;
3309;SDS011;1667;53.238;10.394;2023-02-28T14:36:49;1.43;;;1.33;;
3309;SDS011;1667;53.238;10.394;2023-02-28T14:41:49;1.60;;;1.50;;
3309;SDS011;1667;53.238;10.394;2023-02-28T14:46:50;2.10;;;1.30;;
3309;SDS011;1667;53.238;10.394;2023-02-28T14:52:01;4.07;;;1.50;;
3309;SDS011;1667;53.238;10.394;2023-02-28T14:57:06;2.00;;;1.40;;
3309;SDS011;1667;53.238;10.394;2023-02-28T15:02:20;3.13;;;1.20;;
3309;SDS011;1667;53.238;10.394;2023-02-28T15:07:20;2.70;;;1.50;;
3309;SDS011;1667;53.238;10.394;2023-02-28T15:12:25;1.80;;;1.17;;
3309;SDS011;1667;53.238;10.394;2023-02-28T15:17:25;1.17;;;1.07;;
3309;SDS011;1667;53.238;10.394;2023-02-28T15:22:27;1.17;;;1.07;;
3309;SDS011;1667;53.238;10.394;2023-02-28T15:27:29;2.70;;;1.10;;
3309;SDS011;1667;53.238;10.394;2023-02-28T15:32:33;3.70;;;1.03;;
3309;SDS011;1667;53.238;10.394;2023-02-28T15:37:38;1.10;;;1.00;;
3309;SDS011;1667;53.238;10.394;2023-02-28T15:42:38;2.00;;;1.40;;
3309;SDS011;1667;53.238;10.394;2023-02-28T15:47:38;2.93;;;1.13;;
3309;SDS011;1667;53.238;10.394;2023-02-28T15:52:38;0.93;;;0.93;;
3309;SDS011;1667;53.238;10.394;2023-02-28T15:57:38;1.07;;;1.07;;
3309;SDS011;1667;53.238;10.394;2023-02-28T16:02:40;1.43;;;1.00;;
3309;SDS011;1667;53.238;10.394;2023-02-28T16:07:39;2.20;;;1.50;;
3309;SDS011;1667;53.238;10.394;2023-02-28T16:12:40;1.10;;;1.00;;
3309;SDS011;1667;53.238;10.394;2023-02-28T16:17:41;1.07;;;1.07;;
3309;SDS011;1667;53.238;10.394;2023-02-28T16:22:39;1.77;;;1.20;;
3309;SDS011;1667;53.238;10.394;2023-02-28T16:27:38;5.33;;;2.50;;
3309;SDS011;1667;53.238;10.394;2023-02-28T16:32:37;4.33;;;1.60;;
3309;SDS011;1667;53.238;10.394;2023-02-28T16:37:37;4.30;;;2.90;;
3309;SDS011;1667;53.238;10.394;2023-02-28T16:42:36;5.40;;;2.20;;
3309;SDS011;1667;53.238;10.394;2023-02-28T16:47:36;2.47;;;1.60;;
3309;SDS011;1667;53.238;10.394;2023-02-28T16:52:35;3.23;;;2.30;;
3309;SDS011;1667;53.238;10.394;2023-02-28T16:57:34;6.33;;;3.07;;
3309;SDS011;1667;53.238;10.394;2023-02-28T17:02:33;13.03;;;4.80;;
3309;SDS011;1667;53.238;10.394;2023-02-28T17:07:32;3.73;;;2.70;;
3309;SDS011;1667;53.238;10.394;2023-02-28T17:12:31;2.20;;;1.90;;
3309;SDS011;1667;53.238;10.394;2023-02-28T17:17:31;1.40;;;1.23;;
3309;SDS011;1667;53.238;10.394;2023-02-28T17:22:29;2.50;;;2.00;;
3309;SDS011;1667;53.238;10.394;2023-02-28T17:27:28;3.43;;;1.80;;
3309;SDS011;1667;53.238;10.394;2023-02-28T17:32:27;1.60;;;1.50;;
3309;SDS011;1667;53.238;10.394;2023-02-28T17:37:26;48.63;;;24.70;;
3309;SDS011;1667;53.238;10.394;2023-02-28T17:42:25;3.10;;;2.57;;
3309;SDS011;1667;53.238;10.394;2023-02-28T17:47:24;2.90;;;1.83;;
3309;SDS011;1667;53.238;10.394;2023-02-28T17:52:22;2.00;;;1.80;;
3309;SDS011;1667;53.238;10.394;2023-02-28T17:57:22;2.37;;;2.17;;
3309;SDS011;1667;53.238;10.394;2023-02-28T18:02:20;4.90;;;3.87;;
3309;SDS011;1667;53.238;10.394;2023-02-28T18:07:19;2.03;;;1.83;;
3309;SDS011;1667;53.238;10.394;2023-02-28T18:12:22;3.80;;;2.63;;
3309;SDS011;1667;53.238;10.394;2023-02-28T18:17:21;2.77;;;1.93;;
3309;SDS011;1667;53.238;10.394;2023-02-28T18:22:20;11.20;;;5.63;;
3309;SDS011;1667;53.238;10.394;2023-02-28T18:27:18;6.53;;;4.73;;
3309;SDS011;1667;53.238;10.394;2023-02-28T18:32:18;52.87;;;23.80;;
3309;SDS011;1667;53.238;10.394;2023-02-28T18:37:17;29.50;;;14.83;;
3309;SDS011;1667;53.238;10.394;2023-02-28T18:42:16;19.80;;;11.10;;
3309;SDS011;1667;53.238;10.394;2023-02-28T18:47:15;17.20;;;9.30;;
3309;SDS011;1667;53.238;10.394;2023-02-28T18:52:14;20.20;;;8.43;;
3309;SDS011;1667;53.238;10.394;2023-02-28T18:57:13;4.70;;;3.47;;
3309;SDS011;1667;53.238;10.394;2023-02-28T19:02:12;5.23;;;3.33;;
3309;SDS011;1667;53.238;10.394;2023-02-28T19:07:10;7.40;;;4.00;;
3309;SDS011;1667;53.238;10.394;2023-02-28T19:12:11;4.40;;;3.00;;
3309;SDS011;1667;53.238;10.394;2023-02-28T19:17:12;11.47;;;6.70;;
3309;SDS011;1667;53.238;10.394;2023-02-28T19:22:11;5.30;;;3.97;;
3309;SDS011;1667;53.238;10.394;2023-02-28T19:27:11;4.50;;;4.10;;
3309;SDS011;1667;53.238;10.394;2023-02-28T19:32:10;12.23;;;7.70;;
3309;SDS011;1667;53.238;10.394;2023-02-28T19:37:08;32.33;;;12.37;;
3309;SDS011;1667;53.238;10.394;2023-02-28T19:42:07;18.73;;;10.83;;
3309;SDS011;1667;53.238;10.394;2023-02-28T19:47:07;32.23;;;13.70;;
3309;SDS011;1667;53.238;10.394;2023-02-28T19:52:06;31.30;;;13.30;;
3309;SDS011;1667;53.238;10.394;2023-02-28T19:57:10;54.47;;;23.67;;
3309;SDS011;1667;53.238;10.394;2023-02-28T20:02:12;47.50;;;20.70;;
3309;SDS011;1667;53.238;10.394;2023-02-28T20:07:11;34.77;;;16.77;;
3309;SDS011;1667;53.238;10.394;2023-02-28T20:12:10;28.40;;;11.63;;
3309;SDS011;1667;53.238;10.394;2023-02-28T20:17:21;24.77;;;9.90;;
3309;SDS011;1667;53.238;10.394;2023-02-28T20:22:20;24.47;;;10.63;;
3309;SDS011;1667;53.238;10.394;2023-02-28T20:27:18;17.40;;;9.40;;
3309;SDS011;1667;53.238;10.394;2023-02-28T20:32:17;12.63;;;7.40;;
3309;SDS011;1667;53.238;10.394;2023-02-28T20:37:17;16.77;;;8.40;;
3309;SDS011;1667;53.238;10.394;2023-02-28T20:42:15;12.37;;;7.53;;
3309;SDS011;1667;53.238;10.394;2023-02-28T20:47:14;14.50;;;7.27;;
3309;SDS011;1667;53.238;10.394;2023-02-28T20:52:13;21.60;;;11.97;;
3309;SDS011;1667;53.238;10.394;2023-02-28T20:57:13;24.30;;;13.40;;
3309;SDS011;1667;53.238;10.394;2023-02-28T21:02:12;15.67;;;9.53;;
3309;SDS011;1667;53.238;10.394;2023-02-28T21:07:12;14.97;;;6.80;;
3309;SDS011;1667;53.238;10.394;2023-02-28T21:12:13;11.20;;;6.60;;
3309;SDS011;1667;53.238;10.394;2023-02-28T21:17:11;18.07;;;8.23;;
3309;SDS011;1667;53.238;10.394;2023-02-28T21:22:10;15.13;;;8.03;;
3309;SDS011;1667;53.238;10.394;2023-02-28T21:27:09;9.27;;;6.27;;
3309;SDS011;1667;53.238;10.394;2023-02-28T21:32:09;9.20;;;6.53;;
3309;SDS011;1667;53.238;10.394;2023-02-28T21:37:08;7.70;;;5.47;;
3309;SDS011;1667;53.238;10.394;2023-02-28T21:42:07;11.53;;;7.10;;
3309;SDS011;1667;53.238;10.394;2023-02-28T21:47:05;9.80;;;7.10;;
3309;SDS011;1667;53.238;10.394;2023-02-28T21:52:05;8.63;;;6.60;;
3309;SDS011;1667;53.238;10.394;2023-02-28T21:57:04;9.37;;;6.47;;
3309;SDS011;1667;53.238;10.394;2023-02-28T22:02:03;8.30;;;5.80;;
3309;SDS011;1667;53.238;10.394;2023-02-28T22:07:01;8.67;;;5.30;;
3309;SDS011;1667;53.238;10.394;2023-02-28T22:12:01;7.13;;;4.60;;
3309;SDS011;1667;53.238;10.394;2023-02-28T22:17:01;6.90;;;6.00;;
3309;SDS011;1667;53.238;10.394;2023-02-28T22:22:00;7.57;;;5.90;;
3309;SDS011;1667;53.238;10.394;2023-02-28T22:26:58;8.10;;;6.00;;
3309;SDS011;1667;53.238;10.394;2023-02-28T22:31:58;7.23;;;5.50;;
3309;SDS011;1667;53.238;10.394;2023-02-28T22:36:56;8.97;;;6.97;;
3309;SDS011;1667;53.238;10.394;2023-02-28T22:41:55;8.90;;;6.30;;
3309;SDS011;1667;53.238;10.394;2023-02-28T22:46:54;12.60;;;7.43;;
3309;SDS011;1667;53.238;10.394;2023-02-28T22:51:54;9.10;;;6.93;;
3309;SDS011;1667;53.238;10.394;2023-02-28T22:56:52;9.90;;;6.27;;
3309;SDS011;1667;53.238;10.394;2023-02-28T23:01:50;14.23;;;6.40;;
3309;SDS011;1667;53.238;10.394;2023-02-28T23:06:49;8.80;;;5.60;;
3309;SDS011;1667;53.238;10.394;2023-02-28T23:11:49;9.73;;;6.03;;
3309;SDS011;1667;53.238;10.394;2023-02-28T23:16:48;9.50;;;6.20;;
3309;SDS011;1667;53.238;10.394;2023-02-28T23:21:49;7.50;;;6.00;;
3309;SDS011;1667;53.238;10.394;2023-02-28T23:26:50;7.67;;;6.13;;
3309;SDS011;1667;53.238;10.394;2023-02-28T23:31:49;8.53;;;5.43;;
3309;SDS011;1667;53.238;10.394;2023-02-28T23:36:48;6.00;;;5.27;;
3309;SDS011;1667;53.238;10.394;2023-02-28T23:41:47;9.53;;;6.40;;
3309;SDS011;1667;53.238;10.394;2023-02-28T23:46:48;10.87;;;5.80;;
3309;SDS011;1667;53.238;10.394;2023-02-28T23:51:48;8.37;;;6.07;;
3309;SDS011;1667;53.238;10.394;2023-02-28T23:56:51;8.90;;;6.33;;
